Flight Track Log - Related Links

Times and Time Zones

All times are in EDT time to prevent confusion due to time zone crossing. See the CTL62 flight status page for this flight to view local times or setup timezone preferences in your user account.

Time Position Orientation Groundspeed Altitude Reporting Facility
EDT Latitude Longitude Course Direction KTS MPH feet Rate Location/Type
Tue 10:39:26 PM 40.0778 -83.0658 71° East 104 120 1,000  Level Indianapolis Center
Tue 10:39:50 PM 40.0806 -83.0553 71° East 102 117 1,500 980 Climbing Indianapolis Center
Tue 10:41:04 PM 40.1119 -83.0203 40° Northeast 111 128 2,600 942 Climbing Indianapolis Center
Tue 10:41:51 PM 40.1311 -83.0503 310° West 138 159 3,400 778 Climbing Indianapolis Center
Tue 10:42:52 PM 40.1511 -83.0964 300° West 145 167 4,000 595 Climbing Indianapolis Center
Tue 10:43:52 PM 40.1728 -83.1453 300° West 160 184 4,600 560 Climbing Indianapolis Center
Tue 10:44:07 PM 40.1772 -83.1497 323° Northwest 151 174 4,700 590 Climbing Indianapolis Center
Tue 10:44:53 PM 40.1964 -83.1972 298° West 155 178 5,200 689 Climbing Indianapolis Center
Tue 10:45:08 PM 40.1989 -83.1994 326° Northwest 155 178 5,400 701 Climbing Indianapolis Center
Tue 10:46:10 PM 40.2253 -83.2556 302° West 154 177 6,100 585 Climbing Indianapolis Center
Tue 10:47:11 PM 40.2467 -83.3036 300° West 153 176 6,600 541 Climbing Indianapolis Center
Tue 10:48:12 PM 40.2694 -83.3528 301° West 156 180 7,200 492 Climbing Indianapolis Center
Tue 10:49:13 PM 40.2914 -83.4011 301° West 155 178 7,600 390 Climbing Indianapolis Center
Tue 10:50:15 PM 40.3142 -83.4481 302° West 153 176 8,000 195 Climbing Indianapolis Center
Tue 10:51:16 PM 40.3367 -83.4997 300° West 159 183 8,000  Level Indianapolis Center
Tue 10:52:17 PM 40.3614 -83.5553 300° West 171 197 8,000 34 Level Indianapolis Center
Tue 10:54:13 PM 40.4089 -83.6533 302° West 174 200 8,100 34 Climbing Chicago Center
Tue 10:55:14 PM 40.4328 -83.7072 300° West 173 199 8,100 -47 Level Chicago Center
Tue 10:56:22 PM 40.4572 -83.7756 295° West 173 199 8,000 -47 Descending Indianapolis Center
Tue 10:57:23 PM 40.4831 -83.8311 301° West 175 201 8,000  Level Indianapolis Center
Tue 10:58:25 PM 40.5058 -83.8864 298° West 173 199 8,000  Level Indianapolis Center
Tue 10:59:26 PM 40.5342 -83.9519 300° West 174 200 8,000  Level Indianapolis Center
Tue 11:00:27 PM 40.5594 -84.0058 302° West 173 199 8,000  Level Indianapolis Center
Tue 11:01:29 PM 40.5833 -84.0608 300° West 173 199 8,000  Level Indianapolis Center
Tue 11:02:30 PM 40.6089 -84.1156 302° West 174 200 8,000  Level Indianapolis Center
Tue 11:03:31 PM 40.6322 -84.1717 299° West 173 199 8,000  Level Indianapolis Center
Tue 11:04:32 PM 40.6575 -84.2261 301° West 174 200 8,000  Level Indianapolis Center
Tue 11:05:34 PM 40.6819 -84.2803 301° West 171 197 8,000  Level Indianapolis Center
Tue 11:06:35 PM 40.7053 -84.3369 299° West 173 199 8,000  Level Indianapolis Center
Tue 11:07:24 PM 40.7225 -84.3769 300° West 171 197 8,000  Level Chicago Center
Tue 11:08:25 PM 40.7456 -84.4311 299° West 172 198 8,000  Level Chicago Center
Tue 11:09:26 PM 40.7689 -84.4875 299° West 173 199 8,000  Level Chicago Center
Tue 11:10:27 PM 40.7928 -84.5417 300° West 173 199 8,000  Level Chicago Center
Tue 11:11:27 PM 40.8150 -84.5978 298° West 172 198 8,000  Level Chicago Center
Tue 11:12:28 PM 40.8378 -84.6542 298° West 173 199 8,000  Level Chicago Center
Tue 11:13:29 PM 40.8661 -84.7208 299° West 175 201 8,000  Level Chicago Center
Tue 11:14:30 PM 40.8886 -84.7756 299° West 171 197 8,000  Level Chicago Center
Tue 11:15:30 PM 40.9133 -84.8303 301° West 173 199 8,000  Level Chicago Center
Tue 11:16:31 PM 40.9372 -84.8872 299° West 176 203 8,000  Level Chicago Center
Tue 11:17:32 PM 40.9592 -84.9419 298° West 171 197 8,000  Level Chicago Center
Tue 11:18:33 PM 40.9842 -84.9956 302° West 172 198 8,000  Level Chicago Center
Tue 11:19:34 PM 41.0081 -85.0508 300° West 173 199 8,000  Level Chicago Center
Tue 11:20:34 PM 41.0328 -85.1053 301° West 172 198 8,000  Level Chicago Center
Tue 11:21:35 PM 41.0547 -85.1600 298° West 171 197 8,000  Level Chicago Center
Tue 11:22:36 PM 41.0800 -85.2147 302° West 172 198 8,000  Level Chicago Center
Tue 11:24:37 PM 41.1233 -85.3250 298° West 168 193 8,000  Level Chicago Center
Tue 11:25:38 PM 41.1475 -85.3797 300° West 170 196 8,000  Level Chicago Center
Tue 11:26:39 PM 41.1711 -85.4353 299° West 172 198 8,000  Level Chicago Center
Tue 11:27:40 PM 41.1950 -85.4911 300° West 173 199 8,000  Level Chicago Center
Tue 11:28:41 PM 41.2169 -85.5467 298° West 170 196 8,000  Level Chicago Center
Tue 11:29:41 PM 41.2417 -85.6008 301° West 172 198 8,000  Level Chicago Center
Tue 11:30:42 PM 41.2636 -85.6569 298° West 172 198 8,000  Level Chicago Center
Tue 11:31:43 PM 41.2906 -85.7236 298° West 171 197 8,000  Level Chicago Center
Tue 11:32:44 PM 41.3119 -85.7783 298° West 167 192 8,000 49 Level Chicago Center
Tue 11:33:45 PM 41.3331 -85.8350 296° West 170 196 8,100 49 Climbing Chicago Center
Tue 11:34:46 PM 41.3558 -85.8908 299° West 172 198 8,100  Level Chicago Center
Tue 11:35:46 PM 41.3778 -85.9456 298° West 168 193 8,100 -50 Level Chicago Center
Tue 11:36:47 PM 41.4003 -86.0011 298° West 171 197 8,000  Descending Chicago Center
Tue 11:37:48 PM 41.4217 -86.0575 297° West 171 197 8,100  Climbing Chicago Center
Tue 11:38:49 PM 41.4375 -86.1147 290° West 166 191 8,000 -49 Descending Chicago Center
Tue 11:39:50 PM 41.4606 -86.1683 300° West 166 191 8,000  Level Chicago Center
Tue 11:40:50 PM 41.4819 -86.2242 297° West 168 193 8,000 50 Level Chicago Center
Tue 11:41:51 PM 41.5042 -86.2789 298° West 169 194 8,100  Climbing Chicago Center
Tue 11:42:52 PM 41.5253 -86.3325 298° West 165 190 8,000  Descending Chicago Center
Tue 11:43:53 PM 41.5467 -86.3872 298° West 164 189 8,100 49 Climbing Chicago Center
Tue 11:44:54 PM 41.5683 -86.4425 298° West 168 193 8,100  Level Chicago Center
Tue 11:45:54 PM 41.5889 -86.4981 296° West 168 193 8,100 -99 Level Chicago Center
Tue 11:46:55 PM 41.6092 -86.5544 296° West 169 194 7,900 -295 Descending Chicago Center
Tue 11:47:56 PM 41.6322 -86.6144 297° West 179 206 7,500 -492 Descending Chicago Center
Tue 11:48:57 PM 41.6592 -86.6867 297° West 181 208 6,900 -610 Descending Chicago Center
Tue 11:50:00 PM 41.6742 -86.7465 289° West  Level FlightAware Approximate
Tue 11:53:40 PM 41.7667 -86.9833 299° West 192 221 4,000  Level Chicago TRACON
Tue 11:55:00 PM 41.7912 -87.0566 294° West  Level FlightAware Approximate
Tue 11:55:46 PM 41.8167 -87.1000 294° West 175 201 3,900  Level Chicago TRACON
Tue 11:56:02 PM 41.8231 -87.1136 302° West 176 203 3,800 -395 Descending Chicago Center
Tue 11:57:00 PM 41.8011 -87.1334 299° West  Level FlightAware Approximate
Tue 11:57:02 PM 41.8458 -87.1761 296° West 183 211 3,400  Level Chicago Center
Tue 11:58:00 PM 41.8229 -87.1862 299° West  Level FlightAware Approximate
Tue 11:58:03 PM 41.8694 -87.2378 297° West 186 214 3,000  Level Chicago Center
Tue 11:59:00 PM 41.8446 -87.2389 299° West  Level FlightAware Approximate
Tue 11:59:04 PM 41.8922 -87.2961 298° West 183 211 3,100  Level Chicago Center
Wed 12:00:04 AM 41.9217 -87.3622 301° West 178 205 3,000 -55 Descending Chicago Center
Wed 12:00:53 AM 41.9500 -87.4000 315° West 177 204 3,000  Level Chicago TRACON
Wed 12:01:53 AM 41.9667 -87.4500 294° West 176 203 3,000 50 Level Chicago TRACON
Wed 12:02:53 AM 42.0000 -87.5167 304° West 174 200 3,100 53 Climbing Chicago TRACON
Wed 12:03:47 AM 42.0167 -87.5667 294° West 176 203 3,100 -158 Level Chicago TRACON
Wed 12:04:47 AM 42.0500 -87.6167 312° West 182 209 2,800 -500 Descending Chicago TRACON
Wed 12:05:47 AM 42.0833 -87.6833 304° West 191 220 2,100 -350 Descending Chicago TRACON
Wed 12:06:47 AM 42.1000 -87.7333 294° West 172 198 2,100  Level Chicago TRACON
Wed 12:07:47 AM 42.1167 -87.7833 294° West 145 167 2,100  Level Chicago TRACON

Login

Don't have an account? Register now (free) for customized features, flight alerts, and more!